sensor_id;sensor_type;location;lat;lon;timestamp;temperature;humidity
8633;DHT22;4354;49.832;10.746;2023-03-04T00:02:05;-2.10;99.90
8633;DHT22;4354;49.832;10.746;2023-03-04T00:04:32;-2.20;99.90
8633;DHT22;4354;49.832;10.746;2023-03-04T00:06:59;-2.20;99.90
8633;DHT22;4354;49.832;10.746;2023-03-04T00:09:26;-2.20;99.90
8633;DHT22;4354;49.832;10.746;2023-03-04T00:11:53;-2.20;99.90
8633;DHT22;4354;49.832;10.746;2023-03-04T00:14:20;-2.20;99.90
8633;DHT22;4354;49.832;10.746;2023-03-04T00:16:47;-2.30;99.90
8633;DHT22;4354;49.832;10.746;2023-03-04T00:19:15;-2.20;99.90
8633;DHT22;4354;49.832;10.746;2023-03-04T00:21:41;-2.40;99.90
8633;DHT22;4354;49.832;10.746;2023-03-04T00:24:08;-2.40;99.90
8633;DHT22;4354;49.832;10.746;2023-03-04T00:26:35;-2.50;99.90
8633;DHT22;4354;49.832;10.746;2023-03-04T00:29:02;-2.50;99.90
8633;DHT22;4354;49.832;10.746;2023-03-04T00:31:29;-2.60;99.90
8633;DHT22;4354;49.832;10.746;2023-03-04T00:33:56;-2.40;99.90
8633;DHT22;4354;49.832;10.746;2023-03-04T00:36:23;-2.50;99.90
8633;DHT22;4354;49.832;10.746;2023-03-04T00:38:50;-2.60;99.90
8633;DHT22;4354;49.832;10.746;2023-03-04T00:41:17;-2.60;99.90
8633;DHT22;4354;49.832;10.746;2023-03-04T00:43:44;-2.60;99.90
8633;DHT22;4354;49.832;10.746;2023-03-04T00:46:11;-2.70;99.90
8633;DHT22;4354;49.832;10.746;2023-03-04T00:48:38;-2.80;99.90
8633;DHT22;4354;49.832;10.746;2023-03-04T00:51:05;-2.90;99.90
8633;DHT22;4354;49.832;10.746;2023-03-04T00:53:31;-2.90;99.90
8633;DHT22;4354;49.832;10.746;2023-03-04T00:55:58;-2.90;99.90
8633;DHT22;4354;49.832;10.746;2023-03-04T00:58:25;-2.90;99.90
8633;DHT22;4354;49.832;10.746;2023-03-04T01:00:52;-2.90;99.90
8633;DHT22;4354;49.832;10.746;2023-03-04T01:03:19;-2.80;99.90
8633;DHT22;4354;49.832;10.746;2023-03-04T01:05:46;-2.80;99.90
8633;DHT22;4354;49.832;10.746;2023-03-04T01:08:13;-2.80;99.90
8633;DHT22;4354;49.832;10.746;2023-03-04T01:10:39;-2.80;99.90
8633;DHT22;4354;49.832;10.746;2023-03-04T01:13:06;-2.80;99.90
8633;DHT22;4354;49.832;10.746;2023-03-04T01:15:33;-2.90;99.90
8633;DHT22;4354;49.832;10.746;2023-03-04T01:18:00;-2.90;99.90
8633;DHT22;4354;49.832;10.746;2023-03-04T01:20:27;-2.90;99.90
8633;DHT22;4354;49.832;10.746;2023-03-04T01:22:54;-2.80;99.90
8633;DHT22;4354;49.832;10.746;2023-03-04T01:25:21;-2.60;99.90
8633;DHT22;4354;49.832;10.746;2023-03-04T01:27:47;-2.70;99.90
8633;DHT22;4354;49.832;10.746;2023-03-04T01:30:14;-2.60;99.90
8633;DHT22;4354;49.832;10.746;2023-03-04T01:32:41;-2.50;99.90
8633;DHT22;4354;49.832;10.746;2023-03-04T01:35:08;-2.10;99.90
8633;DHT22;4354;49.832;10.746;2023-03-04T01:37:35;-2.30;99.90
8633;DHT22;4354;49.832;10.746;2023-03-04T01:40:02;-2.20;99.90
8633;DHT22;4354;49.832;10.746;2023-03-04T01:42:33;-2.10;99.90
8633;DHT22;4354;49.832;10.746;2023-03-04T01:45:01;-1.90;99.90
8633;DHT22;4354;49.832;10.746;2023-03-04T01:47:30;-1.80;99.90
8633;DHT22;4354;49.832;10.746;2023-03-04T01:50:01;-1.70;99.90
8633;DHT22;4354;49.832;10.746;2023-03-04T01:52:28;-1.50;99.90
8633;DHT22;4354;49.832;10.746;2023-03-04T01:54:56;-1.40;99.90
8633;DHT22;4354;49.832;10.746;2023-03-04T01:57:25;-1.30;99.90
8633;DHT22;4354;49.832;10.746;2023-03-04T02:02:54;-1.10;99.90
8633;DHT22;4354;49.832;10.746;2023-03-04T02:05:21;-1.10;99.90
8633;DHT22;4354;49.832;10.746;2023-03-04T02:07:50;-1.00;99.90
8633;DHT22;4354;49.832;10.746;2023-03-04T02:10:17;-0.90;99.90
8633;DHT22;4354;49.832;10.746;2023-03-04T02:12:44;-0.90;99.90
8633;DHT22;4354;49.832;10.746;2023-03-04T02:15:11;-0.80;99.90
8633;DHT22;4354;49.832;10.746;2023-03-04T02:17:38;-0.80;99.90
8633;DHT22;4354;49.832;10.746;2023-03-04T02:20:22;-0.70;99.90
8633;DHT22;4354;49.832;10.746;2023-03-04T02:23:48;-0.70;99.90
8633;DHT22;4354;49.832;10.746;2023-03-04T02:26:16;-0.60;99.90
8633;DHT22;4354;49.832;10.746;2023-03-04T02:28:45;-0.50;99.90
8633;DHT22;4354;49.832;10.746;2023-03-04T02:31:39;-0.50;99.90
8633;DHT22;4354;49.832;10.746;2023-03-04T02:34:11;-0.50;99.90
8633;DHT22;4354;49.832;10.746;2023-03-04T02:36:39;-0.50;99.90
8633;DHT22;4354;49.832;10.746;2023-03-04T02:41:41;-0.40;99.90
8633;DHT22;4354;49.832;10.746;2023-03-04T02:44:34;-0.40;99.90
8633;DHT22;4354;49.832;10.746;2023-03-04T02:47:03;-0.30;99.90
8633;DHT22;4354;49.832;10.746;2023-03-04T02:49:30;-0.30;99.90
8633;DHT22;4354;49.832;10.746;2023-03-04T02:52:07;-0.30;99.90
8633;DHT22;4354;49.832;10.746;2023-03-04T02:54:36;-0.20;99.90
8633;DHT22;4354;49.832;10.746;2023-03-04T02:57:05;-0.10;99.90
8633;DHT22;4354;49.832;10.746;2023-03-04T02:59:32;-0.10;99.90
8633;DHT22;4354;49.832;10.746;2023-03-04T03:02:00;-0.10;99.90
8633;DHT22;4354;49.832;10.746;2023-03-04T03:04:27;-0.10;99.90
8633;DHT22;4354;49.832;10.746;2023-03-04T03:06:54;-0.20;99.90
8633;DHT22;4354;49.832;10.746;2023-03-04T03:09:21;-0.10;99.90
8633;DHT22;4354;49.832;10.746;2023-03-04T03:11:48;-0.20;99.90
8633;DHT22;4354;49.832;10.746;2023-03-04T03:14:14;-0.20;99.90
8633;DHT22;4354;49.832;10.746;2023-03-04T03:16:41;-0.20;99.90
8633;DHT22;4354;49.832;10.746;2023-03-04T03:19:08;-0.50;99.90
8633;DHT22;4354;49.832;10.746;2023-03-04T03:21:35;-0.20;99.90
8633;DHT22;4354;49.832;10.746;2023-03-04T03:24:02;-0.20;99.90
8633;DHT22;4354;49.832;10.746;2023-03-04T03:26:29;-0.10;99.90
8633;DHT22;4354;49.832;10.746;2023-03-04T03:28:56;0.00;99.90
8633;DHT22;4354;49.832;10.746;2023-03-04T03:31:23;-0.10;99.90
8633;DHT22;4354;49.832;10.746;2023-03-04T03:33:50;0.00;99.90
8633;DHT22;4354;49.832;10.746;2023-03-04T03:36:16;0.00;99.90
8633;DHT22;4354;49.832;10.746;2023-03-04T03:38:43;0.00;99.90
8633;DHT22;4354;49.832;10.746;2023-03-04T03:41:10;0.00;99.90
8633;DHT22;4354;49.832;10.746;2023-03-04T03:43:37;0.00;99.90
8633;DHT22;4354;49.832;10.746;2023-03-04T03:46:04;0.10;99.90
8633;DHT22;4354;49.832;10.746;2023-03-04T03:48:31;0.00;99.90
8633;DHT22;4354;49.832;10.746;2023-03-04T03:50:57;0.10;99.90
8633;DHT22;4354;49.832;10.746;2023-03-04T03:53:24;0.00;99.90
8633;DHT22;4354;49.832;10.746;2023-03-04T03:55:51;0.00;99.90
8633;DHT22;4354;49.832;10.746;2023-03-04T03:58:18;0.10;99.90
8633;DHT22;4354;49.832;10.746;2023-03-04T04:00:44;0.10;99.90
8633;DHT22;4354;49.832;10.746;2023-03-04T04:03:14;-0.10;99.90
8633;DHT22;4354;49.832;10.746;2023-03-04T04:05:41;0.10;99.90
8633;DHT22;4354;49.832;10.746;2023-03-04T04:08:18;0.40;99.90
8633;DHT22;4354;49.832;10.746;2023-03-04T04:10:45;0.20;99.90
8633;DHT22;4354;49.832;10.746;2023-03-04T04:13:11;0.20;99.90
8633;DHT22;4354;49.832;10.746;2023-03-04T04:15:38;0.00;99.90
8633;DHT22;4354;49.832;10.746;2023-03-04T04:18:06;0.20;99.90
8633;DHT22;4354;49.832;10.746;2023-03-04T04:20:34;0.30;99.90
8633;DHT22;4354;49.832;10.746;2023-03-04T04:23:01;0.30;99.90
8633;DHT22;4354;49.832;10.746;2023-03-04T04:25:28;0.30;99.90
8633;DHT22;4354;49.832;10.746;2023-03-04T04:27:55;0.40;99.90
8633;DHT22;4354;49.832;10.746;2023-03-04T04:30:22;0.30;99.90
8633;DHT22;4354;49.832;10.746;2023-03-04T04:32:49;0.40;99.90
8633;DHT22;4354;49.832;10.746;2023-03-04T04:35:16;0.30;99.90
8633;DHT22;4354;49.832;10.746;2023-03-04T04:37:43;0.40;99.90
8633;DHT22;4354;49.832;10.746;2023-03-04T04:40:10;0.40;99.90
8633;DHT22;4354;49.832;10.746;2023-03-04T04:42:37;0.40;99.90
8633;DHT22;4354;49.832;10.746;2023-03-04T04:45:04;0.50;99.90
8633;DHT22;4354;49.832;10.746;2023-03-04T04:47:31;0.50;99.90
8633;DHT22;4354;49.832;10.746;2023-03-04T04:49:58;0.50;99.90
8633;DHT22;4354;49.832;10.746;2023-03-04T04:52:28;0.50;99.90
8633;DHT22;4354;49.832;10.746;2023-03-04T04:54:55;0.50;99.90
8633;DHT22;4354;49.832;10.746;2023-03-04T04:57:22;0.50;99.90
8633;DHT22;4354;49.832;10.746;2023-03-04T04:59:48;0.50;99.90
8633;DHT22;4354;49.832;10.746;2023-03-04T05:02:15;0.50;99.90
8633;DHT22;4354;49.832;10.746;2023-03-04T05:04:42;0.50;99.90
8633;DHT22;4354;49.832;10.746;2023-03-04T05:07:09;0.50;99.90
8633;DHT22;4354;49.832;10.746;2023-03-04T05:09:36;0.50;99.90
8633;DHT22;4354;49.832;10.746;2023-03-04T05:12:03;0.50;99.90
8633;DHT22;4354;49.832;10.746;2023-03-04T05:14:29;0.50;99.90
8633;DHT22;4354;49.832;10.746;2023-03-04T05:16:56;0.60;99.90
8633;DHT22;4354;49.832;10.746;2023-03-04T05:19:26;0.50;99.90
8633;DHT22;4354;49.832;10.746;2023-03-04T05:21:53;0.50;99.90
8633;DHT22;4354;49.832;10.746;2023-03-04T05:24:20;0.50;99.90
8633;DHT22;4354;49.832;10.746;2023-03-04T05:26:47;0.50;99.90
8633;DHT22;4354;49.832;10.746;2023-03-04T05:29:13;0.50;99.90
8633;DHT22;4354;49.832;10.746;2023-03-04T05:31:40;0.50;99.90
8633;DHT22;4354;49.832;10.746;2023-03-04T05:34:07;0.60;99.90
8633;DHT22;4354;49.832;10.746;2023-03-04T05:36:34;0.50;99.90
8633;DHT22;4354;49.832;10.746;2023-03-04T05:39:00;0.50;99.90
8633;DHT22;4354;49.832;10.746;2023-03-04T05:41:27;0.40;99.90
8633;DHT22;4354;49.832;10.746;2023-03-04T05:43:54;0.50;99.90
8633;DHT22;4354;49.832;10.746;2023-03-04T05:46:22;0.50;99.90
8633;DHT22;4354;49.832;10.746;2023-03-04T05:48:52;0.50;99.90
8633;DHT22;4354;49.832;10.746;2023-03-04T05:51:20;0.50;99.90
8633;DHT22;4354;49.832;10.746;2023-03-04T05:53:47;0.50;99.90
8633;DHT22;4354;49.832;10.746;2023-03-04T05:56:17;0.50;99.90
8633;DHT22;4354;49.832;10.746;2023-03-04T05:58:44;0.50;99.90
8633;DHT22;4354;49.832;10.746;2023-03-04T06:01:13;0.50;99.90
8633;DHT22;4354;49.832;10.746;2023-03-04T06:03:40;0.50;99.90
8633;DHT22;4354;49.832;10.746;2023-03-04T06:06:09;0.50;99.90
8633;DHT22;4354;49.832;10.746;2023-03-04T06:08:36;0.50;99.90
8633;DHT22;4354;49.832;10.746;2023-03-04T06:11:03;0.40;99.90
8633;DHT22;4354;49.832;10.746;2023-03-04T06:13:31;0.50;99.90
8633;DHT22;4354;49.832;10.746;2023-03-04T06:15:59;0.50;99.90
8633;DHT22;4354;49.832;10.746;2023-03-04T06:18:27;0.50;99.90
8633;DHT22;4354;49.832;10.746;2023-03-04T06:20:59;0.60;99.90
8633;DHT22;4354;49.832;10.746;2023-03-04T06:23:27;0.60;99.90
8633;DHT22;4354;49.832;10.746;2023-03-04T06:25:56;0.50;99.90
8633;DHT22;4354;49.832;10.746;2023-03-04T06:28:23;0.50;99.90
8633;DHT22;4354;49.832;10.746;2023-03-04T06:30:51;0.90;99.90
8633;DHT22;4354;49.832;10.746;2023-03-04T06:33:18;0.70;99.90
8633;DHT22;4354;49.832;10.746;2023-03-04T06:35:45;0.50;99.90
8633;DHT22;4354;49.832;10.746;2023-03-04T06:38:12;0.60;99.90
8633;DHT22;4354;49.832;10.746;2023-03-04T06:40:39;0.60;99.90
8633;DHT22;4354;49.832;10.746;2023-03-04T06:43:06;0.60;99.90
8633;DHT22;4354;49.832;10.746;2023-03-04T06:45:33;0.60;99.90
8633;DHT22;4354;49.832;10.746;2023-03-04T06:47:59;0.70;99.90
8633;DHT22;4354;49.832;10.746;2023-03-04T06:50:26;0.70;99.90
8633;DHT22;4354;49.832;10.746;2023-03-04T06:52:55;0.70;99.90
8633;DHT22;4354;49.832;10.746;2023-03-04T06:55:22;0.70;99.90
8633;DHT22;4354;49.832;10.746;2023-03-04T06:57:49;0.80;99.90
8633;DHT22;4354;49.832;10.746;2023-03-04T07:00:17;0.80;99.90
8633;DHT22;4354;49.832;10.746;2023-03-04T07:02:44;0.80;99.90
8633;DHT22;4354;49.832;10.746;2023-03-04T07:05:11;0.80;99.90
8633;DHT22;4354;49.832;10.746;2023-03-04T07:07:38;0.90;99.90
8633;DHT22;4354;49.832;10.746;2023-03-04T07:10:05;0.90;99.90
8633;DHT22;4354;49.832;10.746;2023-03-04T07:12:32;0.90;99.90
8633;DHT22;4354;49.832;10.746;2023-03-04T07:14:58;0.90;99.90
8633;DHT22;4354;49.832;10.746;2023-03-04T07:17:25;1.00;99.90
8633;DHT22;4354;49.832;10.746;2023-03-04T07:19:52;1.10;99.90
8633;DHT22;4354;49.832;10.746;2023-03-04T07:22:19;1.10;99.90
8633;DHT22;4354;49.832;10.746;2023-03-04T07:24:45;1.20;99.90
8633;DHT22;4354;49.832;10.746;2023-03-04T07:27:12;1.20;99.90
8633;DHT22;4354;49.832;10.746;2023-03-04T07:29:39;1.20;99.90
8633;DHT22;4354;49.832;10.746;2023-03-04T07:32:07;1.20;99.90
8633;DHT22;4354;49.832;10.746;2023-03-04T07:34:34;1.20;99.90
8633;DHT22;4354;49.832;10.746;2023-03-04T07:37:01;1.10;99.90
8633;DHT22;4354;49.832;10.746;2023-03-04T07:39:28;1.40;99.90
8633;DHT22;4354;49.832;10.746;2023-03-04T07:41:55;1.40;99.90
8633;DHT22;4354;49.832;10.746;2023-03-04T07:44:21;1.40;99.90
8633;DHT22;4354;49.832;10.746;2023-03-04T07:46:48;1.40;99.90
8633;DHT22;4354;49.832;10.746;2023-03-04T07:49:15;1.40;99.90
8633;DHT22;4354;49.832;10.746;2023-03-04T07:51:42;1.50;99.90
8633;DHT22;4354;49.832;10.746;2023-03-04T07:54:09;1.40;99.90
8633;DHT22;4354;49.832;10.746;2023-03-04T07:56:36;1.50;99.90
8633;DHT22;4354;49.832;10.746;2023-03-04T07:59:03;1.50;99.90
8633;DHT22;4354;49.832;10.746;2023-03-04T08:01:32;1.60;99.90
8633;DHT22;4354;49.832;10.746;2023-03-04T08:03:59;1.60;99.90
8633;DHT22;4354;49.832;10.746;2023-03-04T08:06:27;1.60;99.90
8633;DHT22;4354;49.832;10.746;2023-03-04T08:08:57;1.60;99.90
8633;DHT22;4354;49.832;10.746;2023-03-04T08:11:25;1.60;99.90
8633;DHT22;4354;49.832;10.746;2023-03-04T08:13:52;1.70;99.90
8633;DHT22;4354;49.832;10.746;2023-03-04T08:16:22;1.90;99.90
8633;DHT22;4354;49.832;10.746;2023-03-04T08:18:52;1.80;99.90
8633;DHT22;4354;49.832;10.746;2023-03-04T08:21:20;1.90;99.90
8633;DHT22;4354;49.832;10.746;2023-03-04T08:23:48;2.00;99.90
8633;DHT22;4354;49.832;10.746;2023-03-04T08:26:24;2.00;99.90
8633;DHT22;4354;49.832;10.746;2023-03-04T08:28:52;2.00;99.90
8633;DHT22;4354;49.832;10.746;2023-03-04T08:31:19;2.10;99.90
8633;DHT22;4354;49.832;10.746;2023-03-04T08:33:47;2.10;99.90
8633;DHT22;4354;49.832;10.746;2023-03-04T08:36:14;2.20;99.90
8633;DHT22;4354;49.832;10.746;2023-03-04T08:38:41;2.30;99.90
8633;DHT22;4354;49.832;10.746;2023-03-04T08:41:08;2.50;99.90
8633;DHT22;4354;49.832;10.746;2023-03-04T08:43:35;2.40;99.90
8633;DHT22;4354;49.832;10.746;2023-03-04T08:46:03;2.40;99.90
8633;DHT22;4354;49.832;10.746;2023-03-04T08:48:30;2.40;99.90
8633;DHT22;4354;49.832;10.746;2023-03-04T08:50:57;2.50;99.90
8633;DHT22;4354;49.832;10.746;2023-03-04T08:53:24;2.50;99.90
8633;DHT22;4354;49.832;10.746;2023-03-04T08:55:51;2.60;99.90
8633;DHT22;4354;49.832;10.746;2023-03-04T08:58:19;2.60;99.90
8633;DHT22;4354;49.832;10.746;2023-03-04T09:00:47;2.60;99.90
8633;DHT22;4354;49.832;10.746;2023-03-04T09:03:15;3.00;99.90
8633;DHT22;4354;49.832;10.746;2023-03-04T09:05:43;2.80;99.90
8633;DHT22;4354;49.832;10.746;2023-03-04T09:08:11;2.70;99.90
8633;DHT22;4354;49.832;10.746;2023-03-04T09:10:38;2.90;99.90
8633;DHT22;4354;49.832;10.746;2023-03-04T09:13:04;2.80;99.90
8633;DHT22;4354;49.832;10.746;2023-03-04T09:15:32;2.80;99.90
8633;DHT22;4354;49.832;10.746;2023-03-04T09:18:02;2.90;99.90
8633;DHT22;4354;49.832;10.746;2023-03-04T09:20:30;2.90;99.90
8633;DHT22;4354;49.832;10.746;2023-03-04T09:22:57;3.00;99.90
8633;DHT22;4354;49.832;10.746;2023-03-04T09:25:24;3.10;99.90
8633;DHT22;4354;49.832;10.746;2023-03-04T09:27:51;3.10;99.90
8633;DHT22;4354;49.832;10.746;2023-03-04T09:30:18;3.20;99.90
8633;DHT22;4354;49.832;10.746;2023-03-04T09:32:45;3.20;99.90
8633;DHT22;4354;49.832;10.746;2023-03-04T09:35:12;3.30;99.90
8633;DHT22;4354;49.832;10.746;2023-03-04T09:37:38;3.30;99.90
8633;DHT22;4354;49.832;10.746;2023-03-04T09:40:08;3.50;99.90
8633;DHT22;4354;49.832;10.746;2023-03-04T09:42:51;3.60;99.90
8633;DHT22;4354;49.832;10.746;2023-03-04T09:45:21;3.60;99.90
8633;DHT22;4354;49.832;10.746;2023-03-04T09:47:51;3.60;99.90
8633;DHT22;4354;49.832;10.746;2023-03-04T09:50:19;3.60;99.90
8633;DHT22;4354;49.832;10.746;2023-03-04T09:55:20;3.80;99.90
8633;DHT22;4354;49.832;10.746;2023-03-04T09:57:52;3.90;99.90
8633;DHT22;4354;49.832;10.746;2023-03-04T10:00:44;4.00;99.90
8633;DHT22;4354;49.832;10.746;2023-03-04T10:03:19;3.90;99.90
8633;DHT22;4354;49.832;10.746;2023-03-04T10:05:56;3.90;99.90
8633;DHT22;4354;49.832;10.746;2023-03-04T10:08:51;4.00;99.90
8633;DHT22;4354;49.832;10.746;2023-03-04T10:11:43;4.10;99.90
8633;DHT22;4354;49.832;10.746;2023-03-04T10:21:50;4.20;99.90
8633;DHT22;4354;49.832;10.746;2023-03-04T10:24:19;4.30;99.90
8633;DHT22;4354;49.832;10.746;2023-03-04T10:26:51;4.30;99.90
8633;DHT22;4354;49.832;10.746;2023-03-04T10:29:22;4.40;99.90
8633;DHT22;4354;49.832;10.746;2023-03-04T10:31:50;4.50;99.90
8633;DHT22;4354;49.832;10.746;2023-03-04T10:34:17;4.70;99.90
8633;DHT22;4354;49.832;10.746;2023-03-04T10:37:00;4.70;99.90
8633;DHT22;4354;49.832;10.746;2023-03-04T10:39:37;4.60;99.90
8633;DHT22;4354;49.832;10.746;2023-03-04T10:44:55;4.40;99.90
8633;DHT22;4354;49.832;10.746;2023-03-04T10:47:28;4.40;99.90
8633;DHT22;4354;49.832;10.746;2023-03-04T10:50:01;4.50;99.90
8633;DHT22;4354;49.832;10.746;2023-03-04T10:55:22;4.60;99.90
8633;DHT22;4354;49.832;10.746;2023-03-04T10:57:55;4.70;99.90
8633;DHT22;4354;49.832;10.746;2023-03-04T11:00:32;4.70;99.90
8633;DHT22;4354;49.832;10.746;2023-03-04T11:06:20;4.60;99.90
8633;DHT22;4354;49.832;10.746;2023-03-04T11:08:55;4.70;99.90
8633;DHT22;4354;49.832;10.746;2023-03-04T11:11:41;4.70;99.90
8633;DHT22;4354;49.832;10.746;2023-03-04T11:16:58;4.70;99.90
8633;DHT22;4354;49.832;10.746;2023-03-04T11:19:31;4.80;99.90
8633;DHT22;4354;49.832;10.746;2023-03-04T11:22:01;4.80;99.90
8633;DHT22;4354;49.832;10.746;2023-03-04T11:24:30;4.80;99.90
8633;DHT22;4354;49.832;10.746;2023-03-04T11:27:12;4.80;99.90
8633;DHT22;4354;49.832;10.746;2023-03-04T11:32:35;5.00;99.90
8633;DHT22;4354;49.832;10.746;2023-03-04T11:40:55;5.00;99.90
8633;DHT22;4354;49.832;10.746;2023-03-04T11:43:38;5.00;99.90
8633;DHT22;4354;49.832;10.746;2023-03-04T11:46:41;5.00;99.90
8633;DHT22;4354;49.832;10.746;2023-03-04T12:11:51;5.10;99.90
8633;DHT22;4354;49.832;10.746;2023-03-04T12:14:47;5.10;99.90
8633;DHT22;4354;49.832;10.746;2023-03-04T12:22:48;5.20;99.90
8633;DHT22;4354;49.832;10.746;2023-03-04T12:25:28;5.40;99.90
8633;DHT22;4354;49.832;10.746;2023-03-04T12:44:18;5.60;99.90
8633;DHT22;4354;49.832;10.746;2023-03-04T12:55:11;5.80;99.90
8633;DHT22;4354;49.832;10.746;2023-03-04T12:57:40;5.90;99.90
8633;DHT22;4354;49.832;10.746;2023-03-04T13:00:22;6.00;99.90
8633;DHT22;4354;49.832;10.746;2023-03-04T13:06:23;6.10;99.90
8633;DHT22;4354;49.832;10.746;2023-03-04T13:09:15;6.00;99.90
8633;DHT22;4354;49.832;10.746;2023-03-04T13:16:57;6.10;99.90
8633;DHT22;4354;49.832;10.746;2023-03-04T14:04:22;5.30;99.90
8633;DHT22;4354;49.832;10.746;2023-03-04T14:06:55;5.20;99.90
8633;DHT22;4354;49.832;10.746;2023-03-04T14:09:31;5.20;99.90
8633;DHT22;4354;49.832;10.746;2023-03-04T14:12:04;5.10;99.90
8633;DHT22;4354;49.832;10.746;2023-03-04T14:14:48;5.10;99.90
8633;DHT22;4354;49.832;10.746;2023-03-04T14:17:21;5.10;99.90
8633;DHT22;4354;49.832;10.746;2023-03-04T14:19:49;5.20;99.90
8633;DHT22;4354;49.832;10.746;2023-03-04T14:22:31;5.10;99.90
8633;DHT22;4354;49.832;10.746;2023-03-04T14:25:03;5.20;99.90
8633;DHT22;4354;49.832;10.746;2023-03-04T14:27:33;5.20;99.90
8633;DHT22;4354;49.832;10.746;2023-03-04T14:30:05;5.20;99.90
8633;DHT22;4354;49.832;10.746;2023-03-04T14:32:33;5.20;99.90
8633;DHT22;4354;49.832;10.746;2023-03-04T14:35:06;5.20;99.90
8633;DHT22;4354;49.832;10.746;2023-03-04T14:37:52;5.20;99.90
8633;DHT22;4354;49.832;10.746;2023-03-04T14:40:24;5.20;99.90
8633;DHT22;4354;49.832;10.746;2023-03-04T14:42:56;5.10;99.90
8633;DHT22;4354;49.832;10.746;2023-03-04T14:45:27;5.20;99.90
8633;DHT22;4354;49.832;10.746;2023-03-04T14:48:04;5.10;99.90
8633;DHT22;4354;49.832;10.746;2023-03-04T14:50:32;5.20;99.90
8633;DHT22;4354;49.832;10.746;2023-03-04T14:55:34;5.10;99.90
8633;DHT22;4354;49.832;10.746;2023-03-04T14:58:18;5.10;99.90
8633;DHT22;4354;49.832;10.746;2023-03-04T15:00:46;5.00;99.90
8633;DHT22;4354;49.832;10.746;2023-03-04T15:03:25;5.00;99.90
8633;DHT22;4354;49.832;10.746;2023-03-04T15:05:53;4.90;99.90
8633;DHT22;4354;49.832;10.746;2023-03-04T15:08:30;4.80;99.90
8633;DHT22;4354;49.832;10.746;2023-03-04T15:11:02;4.80;99.90
8633;DHT22;4354;49.832;10.746;2023-03-04T15:13:40;4.90;99.90
8633;DHT22;4354;49.832;10.746;2023-03-04T15:16:10;4.70;99.90
8633;DHT22;4354;49.832;10.746;2023-03-04T15:18:37;4.70;99.90
8633;DHT22;4354;49.832;10.746;2023-03-04T15:21:28;4.60;99.90
8633;DHT22;4354;49.832;10.746;2023-03-04T15:23:55;4.60;99.90
8633;DHT22;4354;49.832;10.746;2023-03-04T15:26:22;4.70;99.90
8633;DHT22;4354;49.832;10.746;2023-03-04T15:28:49;4.60;99.90
8633;DHT22;4354;49.832;10.746;2023-03-04T15:31:18;4.60;99.90
8633;DHT22;4354;49.832;10.746;2023-03-04T15:33:45;4.60;99.90
8633;DHT22;4354;49.832;10.746;2023-03-04T15:36:14;4.60;99.90
8633;DHT22;4354;49.832;10.746;2023-03-04T15:38:44;4.50;99.90
8633;DHT22;4354;49.832;10.746;2023-03-04T15:41:25;4.50;99.90
8633;DHT22;4354;49.832;10.746;2023-03-04T15:43:53;4.40;99.90
8633;DHT22;4354;49.832;10.746;2023-03-04T15:46:20;4.40;99.90
8633;DHT22;4354;49.832;10.746;2023-03-04T15:48:47;4.40;99.90
8633;DHT22;4354;49.832;10.746;2023-03-04T15:51:20;4.40;99.90
8633;DHT22;4354;49.832;10.746;2023-03-04T15:53:53;4.50;99.90
8633;DHT22;4354;49.832;10.746;2023-03-04T15:59:12;4.30;99.90
8633;DHT22;4354;49.832;10.746;2023-03-04T16:01:39;4.30;99.90
8633;DHT22;4354;49.832;10.746;2023-03-04T16:04:11;4.30;99.90
8633;DHT22;4354;49.832;10.746;2023-03-04T16:06:39;4.30;99.90
8633;DHT22;4354;49.832;10.746;2023-03-04T16:09:11;4.30;99.90
8633;DHT22;4354;49.832;10.746;2023-03-04T16:11:43;4.30;99.90
8633;DHT22;4354;49.832;10.746;2023-03-04T16:14:13;4.20;99.90
8633;DHT22;4354;49.832;10.746;2023-03-04T16:16:41;4.20;99.90
8633;DHT22;4354;49.832;10.746;2023-03-04T16:19:09;3.90;99.90
8633;DHT22;4354;49.832;10.746;2023-03-04T16:21:36;4.20;99.90
8633;DHT22;4354;49.832;10.746;2023-03-04T16:24:03;4.20;99.90
8633;DHT22;4354;49.832;10.746;2023-03-04T16:26:31;4.10;99.90
8633;DHT22;4354;49.832;10.746;2023-03-04T16:28:58;4.10;99.90
8633;DHT22;4354;49.832;10.746;2023-03-04T16:31:25;4.10;99.90
8633;DHT22;4354;49.832;10.746;2023-03-04T16:33:52;4.10;99.90
8633;DHT22;4354;49.832;10.746;2023-03-04T16:36:21;4.00;99.90
8633;DHT22;4354;49.832;10.746;2023-03-04T16:38:48;4.00;99.90
8633;DHT22;4354;49.832;10.746;2023-03-04T16:41:16;4.00;99.90
8633;DHT22;4354;49.832;10.746;2023-03-04T16:43:46;4.10;99.90
8633;DHT22;4354;49.832;10.746;2023-03-04T16:46:13;4.00;99.90
8633;DHT22;4354;49.832;10.746;2023-03-04T16:48:40;4.00;99.90
8633;DHT22;4354;49.832;10.746;2023-03-04T16:51:13;3.90;99.90
8633;DHT22;4354;49.832;10.746;2023-03-04T16:53:41;3.90;99.90
8633;DHT22;4354;49.832;10.746;2023-03-04T16:56:15;3.90;99.90
8633;DHT22;4354;49.832;10.746;2023-03-04T16:58:42;3.90;99.90
8633;DHT22;4354;49.832;10.746;2023-03-04T17:01:24;3.90;99.90
8633;DHT22;4354;49.832;10.746;2023-03-04T17:03:52;3.80;99.90
8633;DHT22;4354;49.832;10.746;2023-03-04T17:06:19;3.80;99.90
8633;DHT22;4354;49.832;10.746;2023-03-04T17:08:46;3.80;99.90
8633;DHT22;4354;49.832;10.746;2023-03-04T17:11:17;3.80;99.90
8633;DHT22;4354;49.832;10.746;2023-03-04T17:13:44;3.70;99.90
8633;DHT22;4354;49.832;10.746;2023-03-04T17:16:12;3.70;99.90
8633;DHT22;4354;49.832;10.746;2023-03-04T17:18:39;3.70;99.90
8633;DHT22;4354;49.832;10.746;2023-03-04T17:21:10;3.70;99.90
8633;DHT22;4354;49.832;10.746;2023-03-04T17:23:37;3.60;99.90
8633;DHT22;4354;49.832;10.746;2023-03-04T17:26:04;3.60;99.90
8633;DHT22;4354;49.832;10.746;2023-03-04T17:28:32;3.60;99.90
8633;DHT22;4354;49.832;10.746;2023-03-04T17:30:58;3.60;99.90
8633;DHT22;4354;49.832;10.746;2023-03-04T17:33:26;3.70;99.90
8633;DHT22;4354;49.832;10.746;2023-03-04T17:35:52;3.60;99.90
8633;DHT22;4354;49.832;10.746;2023-03-04T17:38:19;3.60;99.90
8633;DHT22;4354;49.832;10.746;2023-03-04T17:40:46;3.60;99.90
8633;DHT22;4354;49.832;10.746;2023-03-04T17:43:13;3.60;99.90
8633;DHT22;4354;49.832;10.746;2023-03-04T17:45:40;3.60;99.90
8633;DHT22;4354;49.832;10.746;2023-03-04T17:48:09;3.70;99.90
8633;DHT22;4354;49.832;10.746;2023-03-04T17:50:52;3.60;99.90
8633;DHT22;4354;49.832;10.746;2023-03-04T17:53:19;3.60;99.90
8633;DHT22;4354;49.832;10.746;2023-03-04T17:55:54;3.50;99.90
8633;DHT22;4354;49.832;10.746;2023-03-04T17:58:22;3.50;99.90
8633;DHT22;4354;49.832;10.746;2023-03-04T18:00:51;3.50;99.90
8633;DHT22;4354;49.832;10.746;2023-03-04T18:03:18;3.60;99.90
8633;DHT22;4354;49.832;10.746;2023-03-04T18:05:45;3.60;99.90
8633;DHT22;4354;49.832;10.746;2023-03-04T18:08:12;3.50;99.90
8633;DHT22;4354;49.832;10.746;2023-03-04T18:10:39;3.50;99.90
8633;DHT22;4354;49.832;10.746;2023-03-04T18:13:05;3.60;99.90
8633;DHT22;4354;49.832;10.746;2023-03-04T18:15:32;3.80;99.90
8633;DHT22;4354;49.832;10.746;2023-03-04T18:17:59;3.50;99.90
8633;DHT22;4354;49.832;10.746;2023-03-04T18:20:26;3.50;99.90
8633;DHT22;4354;49.832;10.746;2023-03-04T18:22:53;3.50;99.90
8633;DHT22;4354;49.832;10.746;2023-03-04T18:25:22;3.40;99.90
8633;DHT22;4354;49.832;10.746;2023-03-04T18:27:49;3.40;99.90
8633;DHT22;4354;49.832;10.746;2023-03-04T18:30:17;3.40;99.90
8633;DHT22;4354;49.832;10.746;2023-03-04T18:32:46;3.40;99.90
8633;DHT22;4354;49.832;10.746;2023-03-04T18:35:19;3.40;99.90
8633;DHT22;4354;49.832;10.746;2023-03-04T18:37:47;3.50;99.90
8633;DHT22;4354;49.832;10.746;2023-03-04T18:40:14;3.40;99.90